createdAt,value
2023-07-31T00:00:10.490Z,19.70
2023-07-31T00:02:59.331Z,19.70
2023-07-31T00:05:46.480Z,19.70
2023-07-31T00:08:33.714Z,19.50
2023-07-31T00:11:21.180Z,19.50
2023-07-31T00:14:08.388Z,19.50
2023-07-31T00:16:55.929Z,19.50
2023-07-31T00:19:43.307Z,19.50
2023-07-31T00:22:30.757Z,19.50
2023-07-31T00:25:18.264Z,19.50
2023-07-31T00:28:05.749Z,19.50
2023-07-31T00:30:53.156Z,19.50
2023-07-31T00:33:40.524Z,19.60
2023-07-31T00:36:27.941Z,19.50
2023-07-31T00:39:15.375Z,19.40
2023-07-31T00:42:02.664Z,19.40
2023-07-31T00:44:49.820Z,19.30
2023-07-31T00:47:37.605Z,19.20
2023-07-31T00:50:27.170Z,19.20
2023-07-31T00:53:15.417Z,19.10
2023-07-31T00:56:02.613Z,19.10
2023-07-31T00:58:50.140Z,19.10
2023-07-31T01:01:37.611Z,19.10
2023-07-31T01:04:25.160Z,19.10
2023-07-31T01:07:18.306Z,19.10
2023-07-31T01:10:20.397Z,19.20
2023-07-31T01:13:07.899Z,19.30
2023-07-31T01:15:55.338Z,19.10
2023-07-31T01:18:42.592Z,19.10
2023-07-31T01:21:35.754Z,19.00
2023-07-31T01:24:47.476Z,19.00
2023-07-31T01:27:37.960Z,19.00
2023-07-31T01:30:27.920Z,19.00
2023-07-31T01:33:18.094Z,19.10
2023-07-31T01:36:05.829Z,19.10
2023-07-31T01:38:53.040Z,19.10
2023-07-31T01:41:40.382Z,19.10
2023-07-31T01:44:28.126Z,19.00
2023-07-31T01:47:15.832Z,19.10
2023-07-31T01:50:03.287Z,19.10
2023-07-31T01:52:50.441Z,19.20
2023-07-31T01:55:37.289Z,19.20
2023-07-31T01:58:24.559Z,19.20
2023-07-31T02:01:11.959Z,19.30
2023-07-31T02:03:59.407Z,19.30
2023-07-31T02:06:47.163Z,19.40
2023-07-31T02:09:34.513Z,19.30
2023-07-31T02:12:21.426Z,19.30
2023-07-31T02:15:09.060Z,19.30
2023-07-31T02:17:56.452Z,19.30
2023-07-31T02:20:43.546Z,19.30
2023-07-31T02:23:30.760Z,19.30
2023-07-31T02:26:18.143Z,19.30
2023-07-31T02:29:05.367Z,19.40
2023-07-31T02:31:52.712Z,19.40
2023-07-31T02:34:39.957Z,19.40
2023-07-31T02:37:29.372Z,19.40
2023-07-31T02:40:16.723Z,19.40
2023-07-31T02:43:04.269Z,19.40
2023-07-31T02:45:54.936Z,19.40
2023-07-31T02:48:42.434Z,19.30
2023-07-31T02:51:29.973Z,19.30
2023-07-31T02:54:17.555Z,19.30
2023-07-31T02:57:05.084Z,19.40
2023-07-31T02:59:52.675Z,19.40
2023-07-31T03:02:40.339Z,19.40
2023-07-31T03:05:27.624Z,19.40
2023-07-31T03:08:15.468Z,19.50
2023-07-31T03:11:02.573Z,19.40
2023-07-31T03:13:49.959Z,19.40
2023-07-31T03:16:37.538Z,19.30
2023-07-31T03:19:25.034Z,19.30
2023-07-31T03:22:12.455Z,19.10
2023-07-31T03:24:59.937Z,19.10
2023-07-31T03:27:47.587Z,19.00
2023-07-31T03:30:36.225Z,18.90
2023-07-31T03:33:23.297Z,18.90
2023-07-31T03:36:10.732Z,18.80
2023-07-31T03:38:58.487Z,18.80
2023-07-31T03:41:45.620Z,18.70
2023-07-31T03:44:33.087Z,18.80
2023-07-31T03:47:20.626Z,18.80
2023-07-31T03:50:08.679Z,18.60
2023-07-31T03:52:55.745Z,18.70
2023-07-31T03:55:43.067Z,18.70
2023-07-31T03:58:30.627Z,18.60
2023-07-31T04:01:18.908Z,18.60
2023-07-31T04:04:06.352Z,18.60
2023-07-31T04:06:53.535Z,18.60
2023-07-31T04:09:40.971Z,18.60
2023-07-31T04:12:28.377Z,18.70
2023-07-31T04:15:15.760Z,18.80
2023-07-31T04:18:03.292Z,18.80
2023-07-31T04:20:50.911Z,18.80
2023-07-31T04:23:37.861Z,18.80
2023-07-31T04:26:25.254Z,18.80
2023-07-31T04:29:12.523Z,18.80
2023-07-31T04:31:59.914Z,18.80
2023-07-31T04:34:47.183Z,18.80
2023-07-31T04:37:34.419Z,18.80
2023-07-31T04:40:21.502Z,18.90
2023-07-31T04:43:08.593Z,18.80
2023-07-31T04:45:56.021Z,18.80
2023-07-31T04:48:44.445Z,18.80
2023-07-31T04:51:31.514Z,18.70
2023-07-31T04:54:19.093Z,18.70
2023-07-31T04:57:07.831Z,18.70
2023-07-31T04:59:55.451Z,18.70
2023-07-31T05:02:42.949Z,18.80
2023-07-31T05:05:30.425Z,18.80
2023-07-31T05:08:18.605Z,18.80
2023-07-31T05:11:06.094Z,18.90
2023-07-31T05:13:53.244Z,18.80
2023-07-31T05:16:40.860Z,18.80
2023-07-31T05:19:28.253Z,18.90
2023-07-31T05:22:15.666Z,18.80
2023-07-31T05:25:02.987Z,18.80
2023-07-31T05:27:50.511Z,18.80
2023-07-31T05:30:37.692Z,18.70
2023-07-31T05:33:24.625Z,18.70
2023-07-31T05:36:12.197Z,18.70
2023-07-31T05:38:59.304Z,18.70
2023-07-31T05:41:47.153Z,18.80
2023-07-31T05:44:34.675Z,18.80
2023-07-31T05:47:22.158Z,18.70
2023-07-31T05:50:09.998Z,18.80
2023-07-31T05:52:57.436Z,18.80
2023-07-31T05:55:44.949Z,18.80
2023-07-31T05:58:32.366Z,18.80
2023-07-31T06:01:19.955Z,19.00
2023-07-31T06:04:07.736Z,19.00
2023-07-31T06:06:54.691Z,18.90
2023-07-31T06:09:42.028Z,18.90
2023-07-31T06:12:29.174Z,18.90
2023-07-31T06:15:16.755Z,18.80
2023-07-31T06:18:05.793Z,18.80
2023-07-31T06:20:54.686Z,18.90
2023-07-31T06:23:42.436Z,19.10
2023-07-31T06:26:29.630Z,19.00
2023-07-31T06:29:17.404Z,19.00
2023-07-31T06:32:05.049Z,19.00
2023-07-31T06:34:52.742Z,19.10
2023-07-31T06:37:41.323Z,19.20
2023-07-31T06:40:28.880Z,19.10
2023-07-31T06:43:16.042Z,19.10
2023-07-31T06:46:08.080Z,19.10
2023-07-31T06:48:56.064Z,19.10
2023-07-31T06:51:44.976Z,19.20
2023-07-31T06:54:32.321Z,19.40
2023-07-31T06:57:19.736Z,19.30
2023-07-31T07:00:08.028Z,19.30
2023-07-31T07:02:55.531Z,19.30
2023-07-31T07:05:43.179Z,19.30
2023-07-31T07:08:30.936Z,19.30
2023-07-31T07:11:18.558Z,19.30
2023-07-31T07:14:06.116Z,19.40
2023-07-31T07:16:53.965Z,19.50
2023-07-31T07:19:43.156Z,19.70
2023-07-31T07:22:31.149Z,19.90
2023-07-31T07:25:18.964Z,19.90
2023-07-31T07:28:06.420Z,19.90
2023-07-31T07:30:55.558Z,19.90
2023-07-31T07:33:42.922Z,19.80
2023-07-31T07:36:30.666Z,19.90
2023-07-31T07:39:17.870Z,20.00
2023-07-31T07:42:05.495Z,20.10
2023-07-31T07:44:52.673Z,20.20
2023-07-31T07:47:42.200Z,20.30
2023-07-31T07:50:29.611Z,20.40
2023-07-31T07:53:16.894Z,20.50
2023-07-31T07:56:04.201Z,20.50
2023-07-31T07:58:52.519Z,20.50
2023-07-31T08:01:40.083Z,20.40
2023-07-31T08:04:27.372Z,20.50
2023-07-31T08:07:14.910Z,20.50
2023-07-31T08:10:02.989Z,20.50
2023-07-31T08:12:50.107Z,20.70
2023-07-31T08:15:37.448Z,20.80
2023-07-31T08:18:24.714Z,20.80
2023-07-31T08:21:11.830Z,20.90
2023-07-31T08:23:59.254Z,21.00
2023-07-31T08:26:46.456Z,21.30
2023-07-31T08:29:34.200Z,21.30
2023-07-31T08:32:21.592Z,21.40
2023-07-31T08:35:09.042Z,21.40
2023-07-31T08:37:57.002Z,21.40
2023-07-31T08:40:44.482Z,21.40
2023-07-31T08:43:32.239Z,21.60
2023-07-31T08:46:20.823Z,21.70
2023-07-31T08:49:09.385Z,21.90
2023-07-31T08:51:59.204Z,21.90
2023-07-31T08:54:46.389Z,21.70
2023-07-31T08:57:33.897Z,21.60
2023-07-31T09:00:24.316Z,21.40
2023-07-31T09:03:16.798Z,21.40
2023-07-31T09:06:06.656Z,21.50
2023-07-31T09:08:53.973Z,21.60
2023-07-31T09:11:41.588Z,21.50
2023-07-31T09:14:29.581Z,21.60
2023-07-31T09:17:18.473Z,21.50
2023-07-31T09:20:20.216Z,21.50
2023-07-31T09:23:09.240Z,21.50
2023-07-31T09:25:56.639Z,21.40
2023-07-31T09:28:44.119Z,21.40
2023-07-31T09:31:36.746Z,21.30
2023-07-31T09:34:32.586Z,21.30
2023-07-31T09:37:20.055Z,21.40
2023-07-31T09:40:08.179Z,21.20
2023-07-31T09:42:58.469Z,21.20
2023-07-31T09:45:46.445Z,21.10
2023-07-31T09:48:33.917Z,21.20
2023-07-31T09:51:28.714Z,21.30
2023-07-31T09:54:18.064Z,21.30
2023-07-31T09:57:22.024Z,21.40
2023-07-31T10:00:03.171Z,21.60
2023-07-31T10:02:52.812Z,21.70
2023-07-31T10:05:44.228Z,21.90
2023-07-31T10:08:34.801Z,22.10
2023-07-31T10:11:24.112Z,22.00
2023-07-31T10:14:12.387Z,21.90
2023-07-31T10:17:01.055Z,22.00
2023-07-31T10:19:49.069Z,21.90
2023-07-31T10:22:36.688Z,22.00
2023-07-31T10:25:25.793Z,22.00
2023-07-31T10:28:14.110Z,22.00
2023-07-31T10:31:03.879Z,22.10
2023-07-31T10:33:51.503Z,22.40
2023-07-31T10:36:39.221Z,22.70
2023-07-31T10:39:40.831Z,22.80
2023-07-31T10:42:35.977Z,22.90
2023-07-31T10:45:38.024Z,23.00
2023-07-31T10:48:25.498Z,22.90
2023-07-31T10:51:13.907Z,22.80
2023-07-31T10:54:15.315Z,22.90
2023-07-31T10:57:02.590Z,22.90
2023-07-31T10:59:51.153Z,23.00
2023-07-31T11:02:38.489Z,22.90
2023-07-31T11:05:43.631Z,22.90
2023-07-31T11:08:35.682Z,23.20
2023-07-31T11:11:23.249Z,23.20
2023-07-31T11:14:12.260Z,23.20
2023-07-31T11:16:59.928Z,23.20
2023-07-31T11:19:47.552Z,23.10
2023-07-31T11:22:34.621Z,23.10
2023-07-31T11:25:23.933Z,23.20
2023-07-31T11:28:13.363Z,23.10
2023-07-31T11:31:00.894Z,23.10
2023-07-31T11:33:48.530Z,23.10
2023-07-31T11:36:36.239Z,23.10
2023-07-31T11:39:23.771Z,23.40
2023-07-31T11:42:11.309Z,23.40
2023-07-31T11:44:58.640Z,23.40
2023-07-31T11:47:47.312Z,23.50
2023-07-31T11:50:41.153Z,23.60
2023-07-31T11:53:49.810Z,23.60
2023-07-31T11:56:37.757Z,23.70
2023-07-31T11:59:25.354Z,23.50
2023-07-31T12:02:12.915Z,23.40
2023-07-31T12:05:00.091Z,23.30
2023-07-31T12:07:55.722Z,23.10
2023-07-31T12:10:43.603Z,23.10
2023-07-31T12:13:32.621Z,23.10
2023-07-31T12:16:20.086Z,23.00
2023-07-31T12:19:08.887Z,23.10
2023-07-31T12:21:58.659Z,23.10
2023-07-31T12:24:46.599Z,23.10
2023-07-31T12:27:35.731Z,23.20
2023-07-31T12:30:37.869Z,23.40
2023-07-31T12:33:25.197Z,23.50
2023-07-31T12:36:15.294Z,23.60
2023-07-31T12:39:02.888Z,23.70
2023-07-31T12:41:50.427Z,23.80
2023-07-31T12:44:37.890Z,23.90
2023-07-31T12:47:25.577Z,23.80
2023-07-31T12:50:13.089Z,23.70
2023-07-31T12:53:00.342Z,23.90
2023-07-31T12:55:47.643Z,24.10
2023-07-31T12:58:34.966Z,24.40
2023-07-31T13:01:22.276Z,24.70
2023-07-31T13:04:09.782Z,25.00
2023-07-31T13:06:57.414Z,25.20
2023-07-31T13:09:44.656Z,25.20
2023-07-31T13:12:32.270Z,25.10
2023-07-31T13:15:20.002Z,24.90
2023-07-31T13:18:07.453Z,24.70
2023-07-31T13:20:54.752Z,24.50
2023-07-31T13:23:42.072Z,24.50
2023-07-31T13:26:29.381Z,24.50
2023-07-31T13:29:16.819Z,24.50
2023-07-31T13:32:03.974Z,24.50
2023-07-31T13:34:51.487Z,24.50
2023-07-31T13:37:39.133Z,24.70
2023-07-31T13:40:26.642Z,24.70
2023-07-31T13:43:13.490Z,24.60
2023-07-31T13:46:02.507Z,24.50
2023-07-31T13:48:49.821Z,24.30
2023-07-31T13:51:37.185Z,24.30
2023-07-31T13:54:26.534Z,24.10
2023-07-31T13:57:14.449Z,24.00
2023-07-31T14:00:01.771Z,23.80
2023-07-31T14:02:49.514Z,23.70
2023-07-31T14:05:36.736Z,23.50
2023-07-31T14:08:24.370Z,23.50
2023-07-31T14:11:11.810Z,23.50
2023-07-31T14:13:59.165Z,23.20
2023-07-31T14:16:46.418Z,23.10
2023-07-31T14:19:34.098Z,23.10
2023-07-31T14:22:32.064Z,23.20
2023-07-31T14:25:19.065Z,23.30
2023-07-31T14:28:06.483Z,23.40
2023-07-31T14:30:54.028Z,23.40
2023-07-31T14:33:41.317Z,23.50
2023-07-31T14:36:28.845Z,23.80
2023-07-31T14:39:16.305Z,24.00
2023-07-31T14:42:03.809Z,24.10
2023-07-31T14:44:51.658Z,24.00
2023-07-31T14:47:39.082Z,24.00
2023-07-31T14:50:27.076Z,24.00
2023-07-31T14:53:14.491Z,24.10
2023-07-31T14:56:02.079Z,23.90
2023-07-31T14:58:49.137Z,23.60
2023-07-31T15:01:36.080Z,23.50
2023-07-31T15:04:23.547Z,23.30
2023-07-31T15:07:10.861Z,23.50
2023-07-31T15:09:58.282Z,23.50
2023-07-31T15:12:45.746Z,23.40
2023-07-31T15:15:33.482Z,23.40
2023-07-31T15:18:20.921Z,23.10
2023-07-31T15:21:10.131Z,23.00
2023-07-31T15:23:57.868Z,22.90
2023-07-31T15:26:45.333Z,22.80
2023-07-31T15:29:33.775Z,22.80
2023-07-31T15:32:21.264Z,22.60
2023-07-31T15:35:09.252Z,22.50
2023-07-31T15:37:56.519Z,22.60
2023-07-31T15:40:43.691Z,22.60
2023-07-31T15:43:30.938Z,22.60
2023-07-31T15:46:18.737Z,22.70
2023-07-31T15:49:05.717Z,22.50
2023-07-31T15:51:53.239Z,22.40
2023-07-31T15:54:40.690Z,22.40
2023-07-31T15:57:30.821Z,22.20
2023-07-31T16:00:16.874Z,22.00
2023-07-31T16:03:04.405Z,21.90
2023-07-31T16:05:51.822Z,21.90
2023-07-31T16:08:40.446Z,21.90
2023-07-31T16:11:28.577Z,21.80
2023-07-31T16:14:15.497Z,21.80
2023-07-31T16:17:04.276Z,21.80
2023-07-31T16:19:52.001Z,21.80
2023-07-31T16:22:39.446Z,21.80
2023-07-31T16:25:27.236Z,21.90
2023-07-31T16:28:14.637Z,21.90
2023-07-31T16:31:01.813Z,22.10
2023-07-31T16:33:48.755Z,22.00
2023-07-31T16:36:35.999Z,22.10
2023-07-31T16:39:23.450Z,22.00
2023-07-31T16:42:10.663Z,22.00
2023-07-31T16:44:58.060Z,22.10
2023-07-31T16:47:45.404Z,22.30
2023-07-31T16:50:32.631Z,22.40
2023-07-31T16:53:19.800Z,22.40
2023-07-31T16:56:07.813Z,22.30
2023-07-31T16:58:55.981Z,22.40
2023-07-31T17:01:43.787Z,22.20
2023-07-31T17:04:32.264Z,22.10
2023-07-31T17:07:21.254Z,22.20
2023-07-31T17:10:09.816Z,22.20
2023-07-31T17:12:57.191Z,22.10
2023-07-31T17:15:44.441Z,22.00
2023-07-31T17:18:31.696Z,22.00
2023-07-31T17:21:19.035Z,21.80
2023-07-31T17:24:06.977Z,21.80
2023-07-31T17:26:54.545Z,21.50
2023-07-31T17:29:42.183Z,21.20
2023-07-31T17:32:29.458Z,20.90
2023-07-31T17:35:16.748Z,20.90
2023-07-31T17:38:04.443Z,20.80
2023-07-31T17:40:53.897Z,20.70
2023-07-31T17:43:40.914Z,20.80
2023-07-31T17:46:28.257Z,20.70
2023-07-31T17:49:15.628Z,20.60
2023-07-31T17:52:04.339Z,20.30
2023-07-31T17:54:53.125Z,20.30
2023-07-31T17:57:40.382Z,20.30
2023-07-31T18:00:27.730Z,20.30
2023-07-31T18:03:15.382Z,20.40
2023-07-31T18:06:02.640Z,20.50
2023-07-31T18:08:49.764Z,20.50
2023-07-31T18:11:37.591Z,20.50
2023-07-31T18:14:26.655Z,20.50
2023-07-31T18:17:13.773Z,20.50
2023-07-31T18:20:01.218Z,20.60
2023-07-31T18:22:48.690Z,20.60
2023-07-31T18:25:36.391Z,20.60
2023-07-31T18:28:23.713Z,20.60
2023-07-31T18:31:11.346Z,20.70
2023-07-31T18:33:58.656Z,20.70
2023-07-31T18:36:46.256Z,20.80
2023-07-31T18:39:34.267Z,20.90
2023-07-31T18:42:24.722Z,21.00
2023-07-31T18:45:12.155Z,21.10
2023-07-31T18:47:59.360Z,21.20
2023-07-31T18:50:46.506Z,21.20
2023-07-31T18:53:34.015Z,21.10
2023-07-31T18:56:21.579Z,21.00
2023-07-31T18:59:08.813Z,21.00
2023-07-31T19:01:56.439Z,20.90
2023-07-31T19:04:43.742Z,20.80
2023-07-31T19:07:31.032Z,20.90
2023-07-31T19:10:18.524Z,20.80
2023-07-31T19:13:08.824Z,20.80
2023-07-31T19:15:56.416Z,20.70
2023-07-31T19:18:45.103Z,20.70
2023-07-31T19:21:37.429Z,20.70
2023-07-31T19:24:27.752Z,20.70
2023-07-31T19:27:13.928Z,20.70
2023-07-31T19:30:01.354Z,20.60
2023-07-31T19:32:48.807Z,20.70
2023-07-31T19:35:35.720Z,20.60
2023-07-31T19:38:23.271Z,20.60
2023-07-31T19:41:12.051Z,20.60
2023-07-31T19:43:59.736Z,20.50
2023-07-31T19:46:47.091Z,20.50
2023-07-31T19:49:34.685Z,20.50
2023-07-31T19:52:22.251Z,20.50
2023-07-31T19:55:10.133Z,20.50
2023-07-31T19:57:57.806Z,20.30
2023-07-31T20:00:45.051Z,20.30
2023-07-31T20:03:32.386Z,20.30
2023-07-31T20:06:19.793Z,20.20
2023-07-31T20:09:07.165Z,20.10
2023-07-31T20:11:56.408Z,20.10
2023-07-31T20:14:43.598Z,20.00
2023-07-31T20:17:31.476Z,20.10
2023-07-31T20:20:19.131Z,20.20
2023-07-31T20:23:06.288Z,20.10
2023-07-31T20:25:53.800Z,20.10
2023-07-31T20:28:42.738Z,20.10
2023-07-31T20:31:30.126Z,20.00
2023-07-31T20:34:17.405Z,20.00
2023-07-31T20:37:05.048Z,19.90
2023-07-31T20:39:52.444Z,20.00
2023-07-31T20:42:42.624Z,19.90
2023-07-31T20:45:32.515Z,19.80
2023-07-31T20:48:20.436Z,19.70
2023-07-31T20:51:07.561Z,19.60
2023-07-31T20:53:55.175Z,19.40
2023-07-31T20:56:42.718Z,19.20
2023-07-31T20:59:30.212Z,19.10
2023-07-31T21:02:17.478Z,19.00
2023-07-31T21:05:04.810Z,18.90
2023-07-31T21:07:52.192Z,18.80
2023-07-31T21:10:42.399Z,18.80
2023-07-31T21:13:29.616Z,18.70
2023-07-31T21:16:17.107Z,18.70
2023-07-31T21:19:04.659Z,18.70
2023-07-31T21:21:51.991Z,18.60
2023-07-31T21:24:42.573Z,18.70
2023-07-31T21:27:29.741Z,18.60
2023-07-31T21:30:17.172Z,18.60
2023-07-31T21:33:04.748Z,18.60
2023-07-31T21:35:52.022Z,18.60
2023-07-31T21:38:39.592Z,18.60
2023-07-31T21:41:26.872Z,18.60
2023-07-31T21:44:14.197Z,18.50
2023-07-31T21:47:01.719Z,18.50
2023-07-31T21:49:48.999Z,18.40
2023-07-31T21:52:36.141Z,18.30
2023-07-31T21:55:23.466Z,18.40
2023-07-31T21:58:12.650Z,18.40
2023-07-31T22:00:59.724Z,18.30
2023-07-31T22:03:47.292Z,18.40
2023-07-31T22:06:35.555Z,18.30
2023-07-31T22:09:22.973Z,18.40
2023-07-31T22:12:13.252Z,18.50
2023-07-31T22:15:00.634Z,18.40
2023-07-31T22:17:48.139Z,18.40
2023-07-31T22:20:35.929Z,18.40
2023-07-31T22:23:23.120Z,18.40
2023-07-31T22:26:13.461Z,18.40
2023-07-31T22:29:00.419Z,18.40
2023-07-31T22:31:47.651Z,18.30
2023-07-31T22:34:35.098Z,18.30
2023-07-31T22:37:22.472Z,18.20
2023-07-31T22:40:12.513Z,18.20
2023-07-31T22:43:00.214Z,18.20
2023-07-31T22:45:48.689Z,18.30
2023-07-31T22:48:35.603Z,18.20
2023-07-31T22:51:23.078Z,18.20
2023-07-31T22:54:12.146Z,18.20
2023-07-31T22:56:59.162Z,18.20
2023-07-31T22:59:46.865Z,18.20
2023-07-31T23:02:33.995Z,18.20
2023-07-31T23:05:21.606Z,18.20
2023-07-31T23:08:10.103Z,18.10
2023-07-31T23:10:57.218Z,18.20
2023-07-31T23:13:44.722Z,18.10
2023-07-31T23:16:32.333Z,18.20
2023-07-31T23:19:21.223Z,18.30
2023-07-31T23:22:09.578Z,18.20
2023-07-31T23:24:57.171Z,18.10
2023-07-31T23:27:45.264Z,18.20
2023-07-31T23:30:34.403Z,18.30
2023-07-31T23:33:21.733Z,18.30
2023-07-31T23:36:10.901Z,18.40
2023-07-31T23:38:58.331Z,18.40
2023-07-31T23:41:46.087Z,18.20
2023-07-31T23:44:34.583Z,18.20
2023-07-31T23:47:22.131Z,18.20
2023-07-31T23:50:10.478Z,18.10
2023-07-31T23:52:58.237Z,18.10
2023-07-31T23:55:45.714Z,18.10
2023-07-31T23:58:36.158Z,18.00
